createdAt,value
2023-02-22T00:06:17.341Z,1000.4
2023-02-22T00:16:23.920Z,1000.3
2023-02-22T00:26:30.505Z,1000.2
2023-02-22T00:36:37.114Z,1000.2
2023-02-22T00:46:43.681Z,1000.2
2023-02-22T00:56:50.284Z,1000.1
2023-02-22T01:06:56.876Z,1000
2023-02-22T01:17:03.436Z,999.9
2023-02-22T01:27:10.014Z,999.8
2023-02-22T01:37:15.889Z,999.7
2023-02-22T01:47:22.453Z,999.7
2023-02-22T01:57:29.053Z,999.6
2023-02-22T02:07:35.612Z,999.5
2023-02-22T02:17:42.204Z,999.4
2023-02-22T02:27:48.788Z,999.3
2023-02-22T02:37:54.717Z,999.3
2023-02-22T02:48:00.583Z,999.2
2023-02-22T02:58:07.134Z,999.1
2023-02-22T03:08:13.003Z,999.1
2023-02-22T03:18:18.851Z,999
2023-02-22T03:28:25.448Z,998.9
2023-02-22T03:38:32.037Z,998.9
2023-02-22T03:48:38.608Z,998.8
2023-02-22T03:58:45.228Z,998.8
2023-02-22T04:08:51.831Z,998.8
2023-02-22T04:18:58.448Z,998.8
2023-02-22T04:29:05.015Z,998.7
2023-02-22T04:39:11.864Z,998.7
2023-02-22T04:49:18.334Z,998.7
2023-02-22T04:59:24.929Z,998.6
2023-02-22T05:09:31.679Z,998.6
2023-02-22T05:19:38.264Z,998.5
2023-02-22T05:29:44.844Z,998.5
2023-02-22T05:39:51.646Z,998.5
2023-02-22T05:49:57.548Z,998.4
2023-02-22T06:00:04.077Z,998.4
2023-02-22T06:10:10.657Z,998.4
2023-02-22T06:20:17.222Z,998.5
2023-02-22T06:30:23.807Z,998.5
2023-02-22T06:40:30.409Z,998.6
2023-02-22T06:50:36.090Z,998.7
2023-02-22T07:00:41.604Z,998.7
2023-02-22T07:10:47.954Z,998.8
2023-02-22T07:20:54.336Z,998.8
2023-02-22T07:31:00.702Z,998.9
2023-02-22T07:41:07.106Z,999
2023-02-22T07:51:13.482Z,999
2023-02-22T08:01:19.934Z,999
2023-02-22T08:11:26.290Z,999
2023-02-22T08:21:32.620Z,999
2023-02-22T08:31:39.046Z,999
2023-02-22T08:41:45.380Z,998.9
2023-02-22T08:51:51.753Z,998.9
2023-02-22T09:01:58.129Z,998.9
2023-02-22T09:12:03.616Z,998.9
2023-02-22T09:22:10.028Z,998.8
2023-02-22T09:32:16.395Z,998.7
2023-02-22T09:42:22.758Z,998.6
2023-02-22T09:52:29.154Z,998.6
2023-02-22T10:02:35.540Z,998.5
2023-02-22T10:12:41.900Z,998.5
2023-02-22T10:22:48.327Z,998.6
2023-02-22T10:32:54.769Z,998.5
2023-02-22T10:43:01.161Z,998.5
2023-02-22T10:53:07.521Z,998.5
2023-02-22T11:03:13.912Z,998.4
2023-02-22T11:13:20.291Z,998.2
2023-02-22T11:23:26.644Z,998.1
2023-02-22T11:33:32.153Z,998
2023-02-22T11:43:38.604Z,997.8
2023-02-22T11:53:44.967Z,997.7
2023-02-22T12:03:51.309Z,997.6
2023-02-22T12:13:57.805Z,997.5
2023-02-22T12:24:04.016Z,997.5
2023-02-22T12:34:10.400Z,997.4
2023-02-22T12:44:16.782Z,997.4
2023-02-22T12:54:23.216Z,997.4
2023-02-22T13:04:29.549Z,997.2
2023-02-22T13:14:35.901Z,997.1
2023-02-22T13:24:42.339Z,997.1
2023-02-22T13:34:48.635Z,996.9
2023-02-22T13:44:55.025Z,996.9
2023-02-22T13:55:00.551Z,996.8
2023-02-22T14:05:06.901Z,996.8
2023-02-22T14:15:13.257Z,996.7
2023-02-22T14:25:19.638Z,996.7
2023-02-22T14:35:26.049Z,996.6
2023-02-22T14:45:32.440Z,996.6
2023-02-22T14:55:38.761Z,996.5
2023-02-22T15:05:45.152Z,996.5
2023-02-22T15:15:51.583Z,996.5
2023-02-22T15:25:57.872Z,996.5
2023-02-22T15:36:04.236Z,996.5
2023-02-22T15:46:10.636Z,996.5
2023-02-22T15:56:16.986Z,996.5
2023-02-22T16:06:22.549Z,996.6
2023-02-22T16:16:28.870Z,996.6
2023-02-22T16:26:35.332Z,996.5
2023-02-22T16:36:41.619Z,996.6
2023-02-22T16:46:48.015Z,996.5
2023-02-22T16:56:54.354Z,996.5
2023-02-22T17:07:00.738Z,996.5
2023-02-22T17:17:07.122Z,996.6
2023-02-22T17:27:13.590Z,996.6
2023-02-22T17:37:19.969Z,996.7
2023-02-22T17:47:26.381Z,996.7
2023-02-22T17:57:32.738Z,996.7
2023-02-22T18:07:39.118Z,996.7
2023-02-22T18:17:44.614Z,996.7
2023-02-22T18:27:50.973Z,996.7
2023-02-22T18:37:57.347Z,996.7
2023-02-22T18:48:03.747Z,996.7
2023-02-22T18:58:10.090Z,996.8
2023-02-22T19:08:16.490Z,996.8
2023-02-22T19:18:22.910Z,996.7
2023-02-22T19:28:29.281Z,996.7
2023-02-22T19:38:35.620Z,996.7
2023-02-22T19:48:42.011Z,996.7
2023-02-22T19:58:48.358Z,996.7
2023-02-22T20:08:54.747Z,996.8
2023-02-22T20:19:01.215Z,996.8
2023-02-22T20:29:07.476Z,996.8
2023-02-22T20:39:13.850Z,996.9
2023-02-22T20:49:19.384Z,996.9
2023-02-22T20:59:25.761Z,997
2023-02-22T21:09:32.099Z,997
2023-02-22T21:19:38.500Z,997
2023-02-22T21:29:44.844Z,997.1
2023-02-22T21:39:51.430Z,997.1
2023-02-22T21:49:57.678Z,997.1
2023-02-22T22:00:03.942Z,997
2023-02-22T22:10:10.325Z,997
2023-02-22T22:20:16.747Z,996.8
2023-02-22T22:30:23.130Z,996.8
2023-02-22T22:40:29.431Z,996.9
2023-02-22T22:50:35.814Z,996.9
2023-02-22T23:00:41.313Z,996.9
2023-02-22T23:10:47.713Z,996.9
2023-02-22T23:20:54.062Z,996.9
2023-02-22T23:31:00.536Z,996.9
2023-02-22T23:41:06.778Z,996.9
2023-02-22T23:51:13.168Z,996.9
